sensor_id;sensor_type;location;lat;lon;timestamp;P1;durP1;ratioP1;P2;durP2;ratioP2
19778;SDS011;10049;59.306;18.090;2023-02-22T00:01:33;0.50;;;0.50;;
19778;SDS011;10049;59.306;18.090;2023-02-22T00:04:13;0.70;;;0.67;;
19778;SDS011;10049;59.306;18.090;2023-02-22T00:06:44;1.23;;;0.97;;
19778;SDS011;10049;59.306;18.090;2023-02-22T00:09:12;1.00;;;0.90;;
19778;SDS011;10049;59.306;18.090;2023-02-22T00:11:44;1.70;;;1.00;;
19778;SDS011;10049;59.306;18.090;2023-02-22T00:14:13;0.40;;;0.40;;
19778;SDS011;10049;59.306;18.090;2023-02-22T00:16:44;0.30;;;0.30;;
19778;SDS011;10049;59.306;18.090;2023-02-22T00:19:14;0.70;;;0.70;;
19778;SDS011;10049;59.306;18.090;2023-02-22T00:21:41;0.43;;;0.43;;
19778;SDS011;10049;59.306;18.090;2023-02-22T00:24:09;0.40;;;0.40;;
19778;SDS011;10049;59.306;18.090;2023-02-22T00:26:47;0.87;;;0.73;;
19778;SDS011;10049;59.306;18.090;2023-02-22T00:29:15;0.40;;;0.40;;
19778;SDS011;10049;59.306;18.090;2023-02-22T00:31:43;0.20;;;0.20;;
19778;SDS011;10049;59.306;18.090;2023-02-22T00:34:12;0.20;;;0.20;;
19778;SDS011;10049;59.306;18.090;2023-02-22T00:36:45;0.20;;;0.20;;
19778;SDS011;10049;59.306;18.090;2023-02-22T00:39:12;0.30;;;0.30;;
19778;SDS011;10049;59.306;18.090;2023-02-22T00:41:40;0.20;;;0.20;;
19778;SDS011;10049;59.306;18.090;2023-02-22T00:44:10;0.40;;;0.40;;
19778;SDS011;10049;59.306;18.090;2023-02-22T00:46:38;0.70;;;0.70;;
19778;SDS011;10049;59.306;18.090;2023-02-22T00:49:05;0.80;;;0.70;;
19778;SDS011;10049;59.306;18.090;2023-02-22T00:51:33;1.10;;;1.00;;
19778;SDS011;10049;59.306;18.090;2023-02-22T00:54:02;0.67;;;0.67;;
19778;SDS011;10049;59.306;18.090;2023-02-22T00:56:31;1.40;;;0.90;;
19778;SDS011;10049;59.306;18.090;2023-02-22T00:58:59;0.80;;;0.70;;
19778;SDS011;10049;59.306;18.090;2023-02-22T01:01:27;0.73;;;0.73;;
19778;SDS011;10049;59.306;18.090;2023-02-22T01:03:55;1.40;;;0.83;;
19778;SDS011;10049;59.306;18.090;2023-02-22T01:06:23;1.00;;;0.90;;
19778;SDS011;10049;59.306;18.090;2023-02-22T01:08:50;0.70;;;0.70;;
19778;SDS011;10049;59.306;18.090;2023-02-22T01:11:20;1.23;;;0.90;;
19778;SDS011;10049;59.306;18.090;2023-02-22T01:13:47;1.53;;;1.00;;
19778;SDS011;10049;59.306;18.090;2023-02-22T01:16:18;0.87;;;0.80;;
19778;SDS011;10049;59.306;18.090;2023-02-22T01:18:46;0.93;;;0.90;;
19778;SDS011;10049;59.306;18.090;2023-02-22T01:21:14;0.70;;;0.70;;
19778;SDS011;10049;59.306;18.090;2023-02-22T01:23:43;0.87;;;0.73;;
19778;SDS011;10049;59.306;18.090;2023-02-22T01:26:10;0.93;;;0.80;;
19778;SDS011;10049;59.306;18.090;2023-02-22T01:28:40;0.70;;;0.70;;
19778;SDS011;10049;59.306;18.090;2023-02-22T01:31:08;0.83;;;0.80;;
19778;SDS011;10049;59.306;18.090;2023-02-22T01:33:36;0.73;;;0.60;;
19778;SDS011;10049;59.306;18.090;2023-02-22T01:36:04;0.97;;;0.73;;
19778;SDS011;10049;59.306;18.090;2023-02-22T01:38:35;0.70;;;0.70;;
19778;SDS011;10049;59.306;18.090;2023-02-22T01:41:03;1.27;;;0.70;;
19778;SDS011;10049;59.306;18.090;2023-02-22T01:43:31;0.93;;;0.57;;
19778;SDS011;10049;59.306;18.090;2023-02-22T01:46:01;1.00;;;0.90;;
19778;SDS011;10049;59.306;18.090;2023-02-22T01:48:33;0.80;;;0.80;;
19778;SDS011;10049;59.306;18.090;2023-02-22T01:51:03;0.80;;;0.77;;
19778;SDS011;10049;59.306;18.090;2023-02-22T01:53:36;0.80;;;0.80;;
19778;SDS011;10049;59.306;18.090;2023-02-22T01:56:04;1.60;;;0.90;;
19778;SDS011;10049;59.306;18.090;2023-02-22T01:58:33;1.17;;;0.80;;
19778;SDS011;10049;59.306;18.090;2023-02-22T02:01:03;0.80;;;0.80;;
19778;SDS011;10049;59.306;18.090;2023-02-22T02:03:32;0.70;;;0.70;;
19778;SDS011;10049;59.306;18.090;2023-02-22T02:06:02;1.40;;;0.90;;
19778;SDS011;10049;59.306;18.090;2023-02-22T02:08:32;0.90;;;0.80;;
19778;SDS011;10049;59.306;18.090;2023-02-22T02:11:02;2.53;;;0.90;;
19778;SDS011;10049;59.306;18.090;2023-02-22T02:13:30;1.80;;;0.80;;
19778;SDS011;10049;59.306;18.090;2023-02-22T02:15:57;1.57;;;1.00;;
19778;SDS011;10049;59.306;18.090;2023-02-22T02:18:27;1.10;;;0.80;;
19778;SDS011;10049;59.306;18.090;2023-02-22T02:26:37;1.00;;;0.80;;
19778;SDS011;10049;59.306;18.090;2023-02-22T02:29:22;1.30;;;0.80;;
19778;SDS011;10049;59.306;18.090;2023-02-22T02:32:16;1.00;;;0.90;;
19778;SDS011;10049;59.306;18.090;2023-02-22T02:34:47;0.63;;;0.60;;
19778;SDS011;10049;59.306;18.090;2023-02-22T02:37:18;1.03;;;0.93;;
19778;SDS011;10049;59.306;18.090;2023-02-22T02:39:48;12.67;;;1.30;;
19778;SDS011;10049;59.306;18.090;2023-02-22T02:42:19;1.40;;;0.90;;
19778;SDS011;10049;59.306;18.090;2023-02-22T02:44:48;1.03;;;0.93;;
19778;SDS011;10049;59.306;18.090;2023-02-22T02:47:25;2.23;;;1.00;;
19778;SDS011;10049;59.306;18.090;2023-02-22T02:49:54;1.57;;;1.00;;
19778;SDS011;10049;59.306;18.090;2023-02-22T02:52:23;0.60;;;0.60;;
19778;SDS011;10049;59.306;18.090;2023-02-22T02:54:52;0.83;;;0.80;;
19778;SDS011;10049;59.306;18.090;2023-02-22T02:57:20;1.37;;;1.00;;
19778;SDS011;10049;59.306;18.090;2023-02-22T02:59:49;1.17;;;0.97;;
19778;SDS011;10049;59.306;18.090;2023-02-22T03:02:26;1.07;;;0.90;;
19778;SDS011;10049;59.306;18.090;2023-02-22T03:05:03;1.20;;;1.00;;
19778;SDS011;10049;59.306;18.090;2023-02-22T03:07:48;1.10;;;1.00;;
19778;SDS011;10049;59.306;18.090;2023-02-22T03:10:22;1.03;;;0.93;;
19778;SDS011;10049;59.306;18.090;2023-02-22T03:12:54;1.20;;;1.00;;
19778;SDS011;10049;59.306;18.090;2023-02-22T03:15:35;1.00;;;0.90;;
19778;SDS011;10049;59.306;18.090;2023-02-22T03:18:34;1.03;;;0.93;;
19778;SDS011;10049;59.306;18.090;2023-02-22T03:21:09;1.07;;;0.90;;
19778;SDS011;10049;59.306;18.090;2023-02-22T03:23:43;1.80;;;1.13;;
19778;SDS011;10049;59.306;18.090;2023-02-22T03:26:14;1.13;;;0.90;;
19778;SDS011;10049;59.306;18.090;2023-02-22T03:28:48;1.10;;;0.87;;
19778;SDS011;10049;59.306;18.090;2023-02-22T03:31:18;0.67;;;0.60;;
19778;SDS011;10049;59.306;18.090;2023-02-22T03:33:52;1.37;;;0.90;;
19778;SDS011;10049;59.306;18.090;2023-02-22T03:36:23;2.37;;;1.00;;
19778;SDS011;10049;59.306;18.090;2023-02-22T03:38:51;0.60;;;0.60;;
19778;SDS011;10049;59.306;18.090;2023-02-22T03:41:20;1.50;;;1.00;;
19778;SDS011;10049;59.306;18.090;2023-02-22T03:43:50;1.00;;;0.80;;
19778;SDS011;10049;59.306;18.090;2023-02-22T03:46:20;1.00;;;0.90;;
19778;SDS011;10049;59.306;18.090;2023-02-22T03:48:49;1.73;;;1.00;;
19778;SDS011;10049;59.306;18.090;2023-02-22T03:51:19;1.10;;;1.00;;
19778;SDS011;10049;59.306;18.090;2023-02-22T03:53:47;0.60;;;0.60;;
19778;SDS011;10049;59.306;18.090;2023-02-22T03:56:16;0.93;;;0.80;;
19778;SDS011;10049;59.306;18.090;2023-02-22T03:58:45;0.80;;;0.77;;
19778;SDS011;10049;59.306;18.090;2023-02-22T04:01:13;1.07;;;0.97;;
19778;SDS011;10049;59.306;18.090;2023-02-22T04:03:44;1.47;;;1.00;;
19778;SDS011;10049;59.306;18.090;2023-02-22T04:06:11;0.97;;;0.80;;
19778;SDS011;10049;59.306;18.090;2023-02-22T04:08:41;0.67;;;0.60;;
19778;SDS011;10049;59.306;18.090;2023-02-22T04:11:09;1.07;;;0.97;;
19778;SDS011;10049;59.306;18.090;2023-02-22T04:13:37;0.70;;;0.70;;
19778;SDS011;10049;59.306;18.090;2023-02-22T04:16:06;0.90;;;0.80;;
19778;SDS011;10049;59.306;18.090;2023-02-22T04:18:34;0.80;;;0.80;;
19778;SDS011;10049;59.306;18.090;2023-02-22T04:21:02;1.67;;;0.80;;
19778;SDS011;10049;59.306;18.090;2023-02-22T04:23:30;1.00;;;0.90;;
19778;SDS011;10049;59.306;18.090;2023-02-22T04:25:59;0.60;;;0.50;;
19778;SDS011;10049;59.306;18.090;2023-02-22T04:28:27;1.17;;;1.00;;
19778;SDS011;10049;59.306;18.090;2023-02-22T04:30:55;1.23;;;0.80;;
19778;SDS011;10049;59.306;18.090;2023-02-22T04:33:23;1.20;;;0.90;;
19778;SDS011;10049;59.306;18.090;2023-02-22T04:35:51;3.93;;;1.00;;
19778;SDS011;10049;59.306;18.090;2023-02-22T04:38:21;1.23;;;0.97;;
19778;SDS011;10049;59.306;18.090;2023-02-22T04:40:53;1.00;;;0.90;;
19778;SDS011;10049;59.306;18.090;2023-02-22T04:43:24;1.03;;;0.90;;
19778;SDS011;10049;59.306;18.090;2023-02-22T04:45:51;1.13;;;1.03;;
19778;SDS011;10049;59.306;18.090;2023-02-22T04:48:19;0.73;;;0.73;;
19778;SDS011;10049;59.306;18.090;2023-02-22T04:50:47;1.03;;;0.97;;
19778;SDS011;10049;59.306;18.090;2023-02-22T04:53:16;1.33;;;1.17;;
19778;SDS011;10049;59.306;18.090;2023-02-22T04:55:43;1.00;;;0.90;;
19778;SDS011;10049;59.306;18.090;2023-02-22T04:58:11;0.93;;;0.83;;
19778;SDS011;10049;59.306;18.090;2023-02-22T05:00:40;3.53;;;1.23;;
19778;SDS011;10049;59.306;18.090;2023-02-22T05:03:08;1.27;;;0.90;;
19778;SDS011;10049;59.306;18.090;2023-02-22T05:05:35;1.30;;;1.20;;
19778;SDS011;10049;59.306;18.090;2023-02-22T05:08:03;0.90;;;0.77;;
19778;SDS011;10049;59.306;18.090;2023-02-22T05:10:31;1.00;;;0.80;;
19778;SDS011;10049;59.306;18.090;2023-02-22T05:12:59;1.17;;;0.93;;
19778;SDS011;10049;59.306;18.090;2023-02-22T05:15:27;1.40;;;1.20;;
19778;SDS011;10049;59.306;18.090;2023-02-22T05:17:57;1.53;;;0.97;;
19778;SDS011;10049;59.306;18.090;2023-02-22T05:20:25;1.20;;;1.00;;
19778;SDS011;10049;59.306;18.090;2023-02-22T05:22:53;1.20;;;1.10;;
19778;SDS011;10049;59.306;18.090;2023-02-22T05:25:21;1.87;;;1.30;;
19778;SDS011;10049;59.306;18.090;2023-02-22T05:27:50;1.70;;;1.20;;
19778;SDS011;10049;59.306;18.090;2023-02-22T05:30:18;2.30;;;1.23;;
19778;SDS011;10049;59.306;18.090;2023-02-22T05:32:47;1.60;;;1.47;;
19778;SDS011;10049;59.306;18.090;2023-02-22T05:35:16;1.20;;;1.10;;
19778;SDS011;10049;59.306;18.090;2023-02-22T05:37:44;1.53;;;1.30;;
19778;SDS011;10049;59.306;18.090;2023-02-22T05:40:12;1.43;;;1.13;;
19778;SDS011;10049;59.306;18.090;2023-02-22T05:42:40;1.27;;;1.17;;
19778;SDS011;10049;59.306;18.090;2023-02-22T05:45:10;2.90;;;1.50;;
19778;SDS011;10049;59.306;18.090;2023-02-22T05:47:38;2.07;;;1.40;;
19778;SDS011;10049;59.306;18.090;2023-02-22T05:50:08;1.40;;;1.17;;
19778;SDS011;10049;59.306;18.090;2023-02-22T05:52:37;2.50;;;1.10;;
19778;SDS011;10049;59.306;18.090;2023-02-22T05:55:06;1.83;;;1.57;;
19778;SDS011;10049;59.306;18.090;2023-02-22T05:57:34;2.07;;;0.77;;
19778;SDS011;10049;59.306;18.090;2023-02-22T06:00:02;2.60;;;1.67;;
19778;SDS011;10049;59.306;18.090;2023-02-22T06:02:31;0.93;;;0.70;;
19778;SDS011;10049;59.306;18.090;2023-02-22T06:04:58;2.10;;;1.63;;
19778;SDS011;10049;59.306;18.090;2023-02-22T06:07:26;2.47;;;2.03;;
19778;SDS011;10049;59.306;18.090;2023-02-22T06:09:56;1.67;;;1.40;;
19778;SDS011;10049;59.306;18.090;2023-02-22T06:12:23;2.37;;;1.37;;
19778;SDS011;10049;59.306;18.090;2023-02-22T06:14:54;2.53;;;1.43;;
19778;SDS011;10049;59.306;18.090;2023-02-22T06:17:21;1.77;;;1.47;;
19778;SDS011;10049;59.306;18.090;2023-02-22T06:19:49;1.80;;;1.37;;
19778;SDS011;10049;59.306;18.090;2023-02-22T06:22:18;1.67;;;1.10;;
19778;SDS011;10049;59.306;18.090;2023-02-22T06:24:46;3.70;;;1.57;;
19778;SDS011;10049;59.306;18.090;2023-02-22T06:27:15;2.63;;;1.30;;
19778;SDS011;10049;59.306;18.090;2023-02-22T06:29:43;2.00;;;1.40;;
19778;SDS011;10049;59.306;18.090;2023-02-22T06:32:11;1.90;;;1.53;;
19778;SDS011;10049;59.306;18.090;2023-02-22T06:34:41;1.47;;;0.97;;
19778;SDS011;10049;59.306;18.090;2023-02-22T06:37:08;1.30;;;1.20;;
19778;SDS011;10049;59.306;18.090;2023-02-22T06:39:36;2.23;;;1.43;;
19778;SDS011;10049;59.306;18.090;2023-02-22T06:42:06;1.87;;;1.23;;
19778;SDS011;10049;59.306;18.090;2023-02-22T06:44:36;1.63;;;1.30;;
19778;SDS011;10049;59.306;18.090;2023-02-22T06:47:03;3.10;;;1.27;;
19778;SDS011;10049;59.306;18.090;2023-02-22T06:49:31;2.00;;;1.40;;
19778;SDS011;10049;59.306;18.090;2023-02-22T06:52:00;2.53;;;1.53;;
19778;SDS011;10049;59.306;18.090;2023-02-22T06:54:28;2.57;;;1.50;;
19778;SDS011;10049;59.306;18.090;2023-02-22T06:56:56;3.63;;;1.90;;
19778;SDS011;10049;59.306;18.090;2023-02-22T06:59:24;2.37;;;1.70;;
19778;SDS011;10049;59.306;18.090;2023-02-22T07:01:53;1.27;;;1.00;;
19778;SDS011;10049;59.306;18.090;2023-02-22T07:04:23;1.33;;;1.03;;
19778;SDS011;10049;59.306;18.090;2023-02-22T07:06:51;2.27;;;1.30;;
19778;SDS011;10049;59.306;18.090;2023-02-22T07:09:20;1.27;;;0.87;;
19778;SDS011;10049;59.306;18.090;2023-02-22T07:11:48;1.30;;;1.20;;
19778;SDS011;10049;59.306;18.090;2023-02-22T07:14:16;2.37;;;1.43;;
19778;SDS011;10049;59.306;18.090;2023-02-22T07:16:44;2.13;;;1.50;;
19778;SDS011;10049;59.306;18.090;2023-02-22T07:19:13;1.93;;;1.20;;
19778;SDS011;10049;59.306;18.090;2023-02-22T07:21:41;2.03;;;1.33;;
19778;SDS011;10049;59.306;18.090;2023-02-22T07:24:10;3.50;;;1.30;;
19778;SDS011;10049;59.306;18.090;2023-02-22T07:26:38;1.03;;;0.93;;
19778;SDS011;10049;59.306;18.090;2023-02-22T07:29:06;0.70;;;0.60;;
19778;SDS011;10049;59.306;18.090;2023-02-22T07:31:35;2.43;;;1.20;;
19778;SDS011;10049;59.306;18.090;2023-02-22T07:34:05;2.27;;;1.37;;
19778;SDS011;10049;59.306;18.090;2023-02-22T07:36:35;3.13;;;1.60;;
19778;SDS011;10049;59.306;18.090;2023-02-22T07:39:04;2.00;;;1.50;;
19778;SDS011;10049;59.306;18.090;2023-02-22T07:41:35;2.57;;;1.40;;
19778;SDS011;10049;59.306;18.090;2023-02-22T07:44:04;2.60;;;1.50;;
19778;SDS011;10049;59.306;18.090;2023-02-22T07:46:32;2.33;;;1.60;;
19778;SDS011;10049;59.306;18.090;2023-02-22T07:49:00;3.00;;;1.50;;
19778;SDS011;10049;59.306;18.090;2023-02-22T07:51:27;1.53;;;1.30;;
19778;SDS011;10049;59.306;18.090;2023-02-22T07:53:57;2.10;;;1.30;;
19778;SDS011;10049;59.306;18.090;2023-02-22T07:56:25;1.47;;;1.07;;
19778;SDS011;10049;59.306;18.090;2023-02-22T07:58:56;1.23;;;1.13;;
19778;SDS011;10049;59.306;18.090;2023-02-22T08:01:25;3.30;;;1.60;;
19778;SDS011;10049;59.306;18.090;2023-02-22T08:03:53;1.63;;;1.37;;
19778;SDS011;10049;59.306;18.090;2023-02-22T08:06:20;1.50;;;1.00;;
19778;SDS011;10049;59.306;18.090;2023-02-22T08:08:50;1.60;;;1.20;;
19778;SDS011;10049;59.306;18.090;2023-02-22T08:11:19;1.60;;;1.20;;
19778;SDS011;10049;59.306;18.090;2023-02-22T08:13:47;1.50;;;1.27;;
19778;SDS011;10049;59.306;18.090;2023-02-22T08:16:14;1.57;;;1.07;;
19778;SDS011;10049;59.306;18.090;2023-02-22T08:18:43;2.03;;;1.10;;
19778;SDS011;10049;59.306;18.090;2023-02-22T08:21:11;1.90;;;1.17;;
19778;SDS011;10049;59.306;18.090;2023-02-22T08:23:38;2.70;;;1.50;;
19778;SDS011;10049;59.306;18.090;2023-02-22T08:26:06;1.73;;;1.20;;
19778;SDS011;10049;59.306;18.090;2023-02-22T08:28:36;1.20;;;1.10;;
19778;SDS011;10049;59.306;18.090;2023-02-22T08:31:04;3.03;;;1.40;;
19778;SDS011;10049;59.306;18.090;2023-02-22T08:33:33;1.20;;;1.10;;
19778;SDS011;10049;59.306;18.090;2023-02-22T08:36:06;1.67;;;1.30;;
19778;SDS011;10049;59.306;18.090;2023-02-22T08:38:34;1.77;;;1.40;;
19778;SDS011;10049;59.306;18.090;2023-02-22T08:41:03;1.27;;;1.00;;
19778;SDS011;10049;59.306;18.090;2023-02-22T08:43:31;1.33;;;1.10;;
19778;SDS011;10049;59.306;18.090;2023-02-22T08:46:00;1.10;;;0.90;;
19778;SDS011;10049;59.306;18.090;2023-02-22T08:48:28;1.90;;;1.17;;
19778;SDS011;10049;59.306;18.090;2023-02-22T08:50:56;1.47;;;1.10;;
19778;SDS011;10049;59.306;18.090;2023-02-22T08:53:23;2.50;;;1.37;;
19778;SDS011;10049;59.306;18.090;2023-02-22T08:55:51;2.20;;;1.33;;
19778;SDS011;10049;59.306;18.090;2023-02-22T08:58:19;1.20;;;1.10;;
19778;SDS011;10049;59.306;18.090;2023-02-22T09:00:47;0.93;;;0.80;;
19778;SDS011;10049;59.306;18.090;2023-02-22T09:03:16;1.63;;;1.30;;
19778;SDS011;10049;59.306;18.090;2023-02-22T09:05:44;0.93;;;0.80;;
19778;SDS011;10049;59.306;18.090;2023-02-22T09:08:13;1.00;;;0.73;;
19778;SDS011;10049;59.306;18.090;2023-02-22T09:10:41;2.23;;;0.93;;
19778;SDS011;10049;59.306;18.090;2023-02-22T09:13:09;1.43;;;1.17;;
19778;SDS011;10049;59.306;18.090;2023-02-22T09:15:38;4.60;;;1.67;;
19778;SDS011;10049;59.306;18.090;2023-02-22T09:18:07;2.27;;;0.90;;
19778;SDS011;10049;59.306;18.090;2023-02-22T09:20:36;0.80;;;0.80;;
19778;SDS011;10049;59.306;18.090;2023-02-22T09:23:05;2.27;;;1.30;;
19778;SDS011;10049;59.306;18.090;2023-02-22T09:25:34;1.40;;;0.80;;
19778;SDS011;10049;59.306;18.090;2023-02-22T09:28:03;1.20;;;0.90;;
19778;SDS011;10049;59.306;18.090;2023-02-22T09:30:31;1.57;;;1.10;;
19778;SDS011;10049;59.306;18.090;2023-02-22T09:33:09;1.40;;;1.20;;
19778;SDS011;10049;59.306;18.090;2023-02-22T09:35:41;1.50;;;1.10;;
19778;SDS011;10049;59.306;18.090;2023-02-22T09:38:11;0.83;;;0.70;;
19778;SDS011;10049;59.306;18.090;2023-02-22T09:40:42;1.30;;;1.10;;
19778;SDS011;10049;59.306;18.090;2023-02-22T09:43:20;2.57;;;1.17;;
19778;SDS011;10049;59.306;18.090;2023-02-22T09:46:00;1.20;;;0.90;;
19778;SDS011;10049;59.306;18.090;2023-02-22T09:48:55;0.80;;;0.80;;
19778;SDS011;10049;59.306;18.090;2023-02-22T09:51:27;1.80;;;1.13;;
19778;SDS011;10049;59.306;18.090;2023-02-22T09:53:59;1.43;;;1.00;;
19778;SDS011;10049;59.306;18.090;2023-02-22T09:56:28;1.20;;;1.10;;
19778;SDS011;10049;59.306;18.090;2023-02-22T09:58:58;1.20;;;1.00;;
19778;SDS011;10049;59.306;18.090;2023-02-22T10:01:28;1.43;;;1.10;;
19778;SDS011;10049;59.306;18.090;2023-02-22T10:03:59;1.20;;;1.00;;
19778;SDS011;10049;59.306;18.090;2023-02-22T10:06:30;1.93;;;1.10;;
19778;SDS011;10049;59.306;18.090;2023-02-22T10:08:59;1.33;;;1.20;;
19778;SDS011;10049;59.306;18.090;2023-02-22T10:11:34;2.07;;;1.10;;
19778;SDS011;10049;59.306;18.090;2023-02-22T10:14:06;1.20;;;1.00;;
19778;SDS011;10049;59.306;18.090;2023-02-22T10:16:37;1.33;;;0.93;;
19778;SDS011;10049;59.306;18.090;2023-02-22T10:19:09;1.87;;;1.10;;
19778;SDS011;10049;59.306;18.090;2023-02-22T10:21:45;1.80;;;1.03;;
19778;SDS011;10049;59.306;18.090;2023-02-22T10:24:17;2.00;;;1.10;;
19778;SDS011;10049;59.306;18.090;2023-02-22T10:26:49;2.17;;;1.10;;
19778;SDS011;10049;59.306;18.090;2023-02-22T10:29:19;1.83;;;1.20;;
19778;SDS011;10049;59.306;18.090;2023-02-22T10:31:52;1.50;;;1.10;;
19778;SDS011;10049;59.306;18.090;2023-02-22T10:34:21;1.57;;;1.10;;
19778;SDS011;10049;59.306;18.090;2023-02-22T10:36:53;1.10;;;0.90;;
19778;SDS011;10049;59.306;18.090;2023-02-22T10:39:24;0.90;;;0.90;;
19778;SDS011;10049;59.306;18.090;2023-02-22T10:41:57;0.97;;;0.80;;
19778;SDS011;10049;59.306;18.090;2023-02-22T10:44:33;1.20;;;0.90;;
19778;SDS011;10049;59.306;18.090;2023-02-22T10:47:02;0.67;;;0.67;;
19778;SDS011;10049;59.306;18.090;2023-02-22T10:49:32;1.20;;;1.07;;
19778;SDS011;10049;59.306;18.090;2023-02-22T10:52:10;1.27;;;1.10;;
19778;SDS011;10049;59.306;18.090;2023-02-22T10:54:40;1.70;;;1.00;;
19778;SDS011;10049;59.306;18.090;2023-02-22T10:57:08;1.30;;;1.10;;
19778;SDS011;10049;59.306;18.090;2023-02-22T10:59:38;1.20;;;1.10;;
19778;SDS011;10049;59.306;18.090;2023-02-22T11:02:08;0.80;;;0.80;;
19778;SDS011;10049;59.306;18.090;2023-02-22T11:04:45;1.47;;;1.17;;
19778;SDS011;10049;59.306;18.090;2023-02-22T11:07:19;1.53;;;1.20;;
19778;SDS011;10049;59.306;18.090;2023-02-22T11:09:48;3.43;;;0.90;;
19778;SDS011;10049;59.306;18.090;2023-02-22T11:12:17;1.10;;;0.90;;
19778;SDS011;10049;59.306;18.090;2023-02-22T11:14:46;1.17;;;1.00;;
19778;SDS011;10049;59.306;18.090;2023-02-22T11:17:18;1.30;;;0.90;;
19778;SDS011;10049;59.306;18.090;2023-02-22T11:19:48;1.17;;;0.90;;
19778;SDS011;10049;59.306;18.090;2023-02-22T11:22:22;1.20;;;1.00;;
19778;SDS011;10049;59.306;18.090;2023-02-22T11:25:06;1.40;;;1.00;;
19778;SDS011;10049;59.306;18.090;2023-02-22T11:27:34;1.17;;;0.93;;
19778;SDS011;10049;59.306;18.090;2023-02-22T11:30:18;1.10;;;0.97;;
19778;SDS011;10049;59.306;18.090;2023-02-22T11:32:47;1.17;;;0.97;;
19778;SDS011;10049;59.306;18.090;2023-02-22T11:35:18;1.10;;;1.00;;
19778;SDS011;10049;59.306;18.090;2023-02-22T11:37:48;2.03;;;1.30;;
19778;SDS011;10049;59.306;18.090;2023-02-22T11:40:17;1.30;;;1.10;;
19778;SDS011;10049;59.306;18.090;2023-02-22T11:42:47;4.90;;;1.40;;
19778;SDS011;10049;59.306;18.090;2023-02-22T11:45:15;1.90;;;1.33;;
19778;SDS011;10049;59.306;18.090;2023-02-22T11:47:48;1.67;;;1.47;;
19778;SDS011;10049;59.306;18.090;2023-02-22T11:50:25;3.03;;;1.67;;
19778;SDS011;10049;59.306;18.090;2023-02-22T11:52:58;1.67;;;1.30;;
19778;SDS011;10049;59.306;18.090;2023-02-22T11:55:30;2.77;;;1.20;;
19778;SDS011;10049;59.306;18.090;2023-02-22T11:58:01;2.43;;;1.20;;
19778;SDS011;10049;59.306;18.090;2023-02-22T12:00:35;2.00;;;1.57;;
19778;SDS011;10049;59.306;18.090;2023-02-22T12:05:54;1.87;;;1.27;;
19778;SDS011;10049;59.306;18.090;2023-02-22T12:08:31;1.23;;;1.13;;
19778;SDS011;10049;59.306;18.090;2023-02-22T12:11:06;1.70;;;1.13;;
19778;SDS011;10049;59.306;18.090;2023-02-22T12:13:44;1.63;;;1.30;;
19778;SDS011;10049;59.306;18.090;2023-02-22T12:16:16;1.40;;;1.20;;
19778;SDS011;10049;59.306;18.090;2023-02-22T12:18:53;1.40;;;1.03;;
19778;SDS011;10049;59.306;18.090;2023-02-22T12:21:25;1.47;;;1.00;;
19778;SDS011;10049;59.306;18.090;2023-02-22T12:23:57;1.60;;;1.20;;
19778;SDS011;10049;59.306;18.090;2023-02-22T12:26:28;1.73;;;1.30;;
19778;SDS011;10049;59.306;18.090;2023-02-22T12:28:57;1.93;;;1.20;;
19778;SDS011;10049;59.306;18.090;2023-02-22T12:31:29;1.27;;;1.07;;
19778;SDS011;10049;59.306;18.090;2023-02-22T12:34:01;2.00;;;1.20;;
19778;SDS011;10049;59.306;18.090;2023-02-22T12:36:34;4.93;;;1.30;;
19778;SDS011;10049;59.306;18.090;2023-02-22T12:39:10;2.00;;;1.23;;
19778;SDS011;10049;59.306;18.090;2023-02-22T12:41:43;4.60;;;1.17;;
19778;SDS011;10049;59.306;18.090;2023-02-22T12:44:14;3.10;;;1.30;;
19778;SDS011;10049;59.306;18.090;2023-02-22T12:46:45;2.10;;;1.00;;
19778;SDS011;10049;59.306;18.090;2023-02-22T12:49:15;1.20;;;0.90;;
19778;SDS011;10049;59.306;18.090;2023-02-22T12:51:47;1.10;;;1.00;;
19778;SDS011;10049;59.306;18.090;2023-02-22T12:54:20;2.13;;;1.47;;
19778;SDS011;10049;59.306;18.090;2023-02-22T12:56:50;0.70;;;0.70;;
19778;SDS011;10049;59.306;18.090;2023-02-22T12:59:20;2.10;;;1.40;;
19778;SDS011;10049;59.306;18.090;2023-02-22T13:01:49;0.80;;;0.73;;
19778;SDS011;10049;59.306;18.090;2023-02-22T13:04:17;1.40;;;1.00;;
19778;SDS011;10049;59.306;18.090;2023-02-22T13:06:49;1.37;;;1.10;;
19778;SDS011;10049;59.306;18.090;2023-02-22T13:09:31;1.83;;;1.33;;
19778;SDS011;10049;59.306;18.090;2023-02-22T13:12:01;1.87;;;1.30;;
19778;SDS011;10049;59.306;18.090;2023-02-22T13:14:33;1.63;;;1.30;;
19778;SDS011;10049;59.306;18.090;2023-02-22T13:17:03;3.13;;;1.20;;
19778;SDS011;10049;59.306;18.090;2023-02-22T13:19:37;2.93;;;1.50;;
19778;SDS011;10049;59.306;18.090;2023-02-22T13:22:11;1.30;;;1.20;;
19778;SDS011;10049;59.306;18.090;2023-02-22T13:24:45;1.90;;;1.33;;
19778;SDS011;10049;59.306;18.090;2023-02-22T13:27:15;1.70;;;1.37;;
19778;SDS011;10049;59.306;18.090;2023-02-22T13:29:47;2.77;;;1.27;;
19778;SDS011;10049;59.306;18.090;2023-02-22T13:32:19;1.13;;;1.00;;
19778;SDS011;10049;59.306;18.090;2023-02-22T13:35:00;1.73;;;1.03;;
19778;SDS011;10049;59.306;18.090;2023-02-22T13:51:19;1.37;;;1.10;;
19778;SDS011;10049;59.306;18.090;2023-02-22T13:53:57;1.13;;;1.00;;
19778;SDS011;10049;59.306;18.090;2023-02-22T13:56:26;1.27;;;1.00;;
19778;SDS011;10049;59.306;18.090;2023-02-22T13:58:56;1.63;;;1.20;;
19778;SDS011;10049;59.306;18.090;2023-02-22T14:01:38;1.50;;;1.30;;
19778;SDS011;10049;59.306;18.090;2023-02-22T14:04:18;1.40;;;1.20;;
19778;SDS011;10049;59.306;18.090;2023-02-22T14:06:49;1.87;;;1.30;;
19778;SDS011;10049;59.306;18.090;2023-02-22T14:09:39;1.40;;;1.10;;
19778;SDS011;10049;59.306;18.090;2023-02-22T14:12:09;1.23;;;1.13;;
19778;SDS011;10049;59.306;18.090;2023-02-22T14:15:07;1.53;;;1.33;;
19778;SDS011;10049;59.306;18.090;2023-02-22T14:17:39;1.50;;;1.10;;
19778;SDS011;10049;59.306;18.090;2023-02-22T14:20:23;1.70;;;1.40;;
19778;SDS011;10049;59.306;18.090;2023-02-22T14:23:23;2.10;;;1.50;;
19778;SDS011;10049;59.306;18.090;2023-02-22T14:25:45;3.83;;;1.60;;
19778;SDS011;10049;59.306;18.090;2023-02-22T14:31:03;1.43;;;1.00;;
19778;SDS011;10049;59.306;18.090;2023-02-22T14:36:18;2.20;;;1.53;;
19778;SDS011;10049;59.306;18.090;2023-02-22T14:38:48;1.90;;;1.23;;
19778;SDS011;10049;59.306;18.090;2023-02-22T14:41:19;3.60;;;1.33;;
19778;SDS011;10049;59.306;18.090;2023-02-22T14:43:48;2.20;;;1.50;;
19778;SDS011;10049;59.306;18.090;2023-02-22T14:46:20;1.50;;;1.20;;
19778;SDS011;10049;59.306;18.090;2023-02-22T14:48:49;1.93;;;1.50;;
19778;SDS011;10049;59.306;18.090;2023-02-22T14:51:19;2.03;;;1.37;;
19778;SDS011;10049;59.306;18.090;2023-02-22T14:53:50;2.50;;;1.10;;
19778;SDS011;10049;59.306;18.090;2023-02-22T14:56:21;1.67;;;1.30;;
19778;SDS011;10049;59.306;18.090;2023-02-22T14:58:50;0.50;;;0.50;;
19778;SDS011;10049;59.306;18.090;2023-02-22T15:01:25;1.83;;;1.30;;
19778;SDS011;10049;59.306;18.090;2023-02-22T15:03:57;1.50;;;1.40;;
19778;SDS011;10049;59.306;18.090;2023-02-22T15:06:27;2.50;;;1.60;;
19778;SDS011;10049;59.306;18.090;2023-02-22T15:09:09;3.63;;;1.50;;
19778;SDS011;10049;59.306;18.090;2023-02-22T15:11:38;1.77;;;1.33;;
19778;SDS011;10049;59.306;18.090;2023-02-22T15:14:14;2.40;;;1.60;;
19778;SDS011;10049;59.306;18.090;2023-02-22T15:16:45;1.67;;;1.40;;
19778;SDS011;10049;59.306;18.090;2023-02-22T15:19:13;1.50;;;1.40;;
19778;SDS011;10049;59.306;18.090;2023-02-22T15:21:46;2.80;;;1.80;;